sensor_id;sensor_type;location;lat;lon;timestamp;P1;durP1;ratioP1;P2;durP2;ratioP2
22965;SDS011;11649;48.090;9.754;2022-09-09T00:04:00;5.15;;;1.10;;
22965;SDS011;11649;48.090;9.754;2022-09-09T00:19:55;2.65;;;1.10;;
22965;SDS011;11649;48.090;9.754;2022-09-09T00:22:28;2.25;;;1.20;;
22965;SDS011;11649;48.090;9.754;2022-09-09T00:25:08;3.55;;;1.00;;
22965;SDS011;11649;48.090;9.754;2022-09-09T00:27:40;1.55;;;1.23;;
22965;SDS011;11649;48.090;9.754;2022-09-09T00:30:13;1.83;;;1.15;;
22965;SDS011;11649;48.090;9.754;2022-09-09T00:32:40;5.75;;;1.25;;
22965;SDS011;11649;48.090;9.754;2022-09-09T00:35:16;6.43;;;1.13;;
22965;SDS011;11649;48.090;9.754;2022-09-09T00:38:01;3.33;;;1.40;;
22965;SDS011;11649;48.090;9.754;2022-09-09T00:40:38;2.45;;;1.20;;
22965;SDS011;11649;48.090;9.754;2022-09-09T00:43:21;3.78;;;1.20;;
22965;SDS011;11649;48.090;9.754;2022-09-09T00:48:18;3.97;;;1.33;;
22965;SDS011;11649;48.090;9.754;2022-09-09T00:50:53;1.83;;;0.90;;
22965;SDS011;11649;48.090;9.754;2022-09-09T00:53:56;3.50;;;1.20;;
22965;SDS011;11649;48.090;9.754;2022-09-09T00:56:35;4.80;;;1.05;;
22965;SDS011;11649;48.090;9.754;2022-09-09T01:05:19;2.35;;;1.05;;
22965;SDS011;11649;48.090;9.754;2022-09-09T01:07:57;1.80;;;1.20;;
22965;SDS011;11649;48.090;9.754;2022-09-09T01:13:20;6.68;;;1.20;;
22965;SDS011;11649;48.090;9.754;2022-09-09T01:16:00;1.98;;;1.05;;
22965;SDS011;11649;48.090;9.754;2022-09-09T01:18:39;3.42;;;1.10;;
22965;SDS011;11649;48.090;9.754;2022-09-09T01:24:27;1.10;;;1.00;;
22965;SDS011;11649;48.090;9.754;2022-09-09T01:27:04;1.85;;;1.10;;
22965;SDS011;11649;48.090;9.754;2022-09-09T01:29:33;1.77;;;1.10;;
22965;SDS011;11649;48.090;9.754;2022-09-09T01:32:35;2.33;;;1.17;;
22965;SDS011;11649;48.090;9.754;2022-09-09T01:35:22;2.17;;;1.13;;
22965;SDS011;11649;48.090;9.754;2022-09-09T01:37:59;1.55;;;1.08;;
22965;SDS011;11649;48.090;9.754;2022-09-09T01:40:28;2.25;;;1.10;;
22965;SDS011;11649;48.090;9.754;2022-09-09T01:43:11;2.88;;;1.02;;
22965;SDS011;11649;48.090;9.754;2022-09-09T01:45:39;1.33;;;1.13;;
22965;SDS011;11649;48.090;9.754;2022-09-09T01:48:08;1.52;;;1.00;;
22965;SDS011;11649;48.090;9.754;2022-09-09T01:50:35;2.97;;;1.33;;
22965;SDS011;11649;48.090;9.754;2022-09-09T01:53:02;2.30;;;1.23;;
22965;SDS011;11649;48.090;9.754;2022-09-09T01:55:42;1.67;;;1.30;;
22965;SDS011;11649;48.090;9.754;2022-09-09T02:01:01;5.10;;;1.65;;
22965;SDS011;11649;48.090;9.754;2022-09-09T02:03:51;7.20;;;1.80;;
22965;SDS011;11649;48.090;9.754;2022-09-09T02:09:02;3.97;;;1.55;;
22965;SDS011;11649;48.090;9.754;2022-09-09T02:11:32;1.85;;;1.33;;
22965;SDS011;11649;48.090;9.754;2022-09-09T02:14:00;6.00;;;1.80;;
22965;SDS011;11649;48.090;9.754;2022-09-09T02:16:39;3.38;;;1.67;;
22965;SDS011;11649;48.090;9.754;2022-09-09T02:19:15;3.38;;;1.45;;
22965;SDS011;11649;48.090;9.754;2022-09-09T02:21:50;1.90;;;1.60;;
22965;SDS011;11649;48.090;9.754;2022-09-09T02:24:19;2.00;;;1.50;;
22965;SDS011;11649;48.090;9.754;2022-09-09T02:26:48;5.82;;;1.58;;
22965;SDS011;11649;48.090;9.754;2022-09-09T02:29:22;2.80;;;1.30;;
22965;SDS011;11649;48.090;9.754;2022-09-09T02:31:52;2.78;;;1.50;;
22965;SDS011;11649;48.090;9.754;2022-09-09T02:34:23;1.73;;;1.27;;
22965;SDS011;11649;48.090;9.754;2022-09-09T02:36:53;3.42;;;1.42;;
22965;SDS011;11649;48.090;9.754;2022-09-09T02:39:23;4.28;;;1.25;;
22965;SDS011;11649;48.090;9.754;2022-09-09T02:41:50;3.40;;;1.35;;
22965;SDS011;11649;48.090;9.754;2022-09-09T02:44:17;2.35;;;1.15;;
22965;SDS011;11649;48.090;9.754;2022-09-09T02:47:04;2.88;;;1.58;;
22965;SDS011;11649;48.090;9.754;2022-09-09T02:52:50;4.40;;;1.60;;
22965;SDS011;11649;48.090;9.754;2022-09-09T02:55:20;2.63;;;1.60;;
22965;SDS011;11649;48.090;9.754;2022-09-09T02:57:55;3.45;;;1.30;;
22965;SDS011;11649;48.090;9.754;2022-09-09T03:00:26;1.65;;;1.20;;
22965;SDS011;11649;48.090;9.754;2022-09-09T03:02:54;1.67;;;1.45;;
22965;SDS011;11649;48.090;9.754;2022-09-09T03:05:21;7.03;;;1.58;;
22965;SDS011;11649;48.090;9.754;2022-09-09T03:07:48;5.18;;;1.40;;
22965;SDS011;11649;48.090;9.754;2022-09-09T03:10:16;7.03;;;1.40;;
22965;SDS011;11649;48.090;9.754;2022-09-09T03:12:43;2.28;;;1.10;;
22965;SDS011;11649;48.090;9.754;2022-09-09T03:15:10;1.73;;;1.25;;
22965;SDS011;11649;48.090;9.754;2022-09-09T03:17:37;3.38;;;1.60;;
22965;SDS011;11649;48.090;9.754;2022-09-09T03:20:04;7.05;;;1.48;;
22965;SDS011;11649;48.090;9.754;2022-09-09T03:22:31;2.10;;;1.20;;
22965;SDS011;11649;48.090;9.754;2022-09-09T03:24:58;1.95;;;1.40;;
22965;SDS011;11649;48.090;9.754;2022-09-09T03:27:25;2.67;;;1.67;;
22965;SDS011;11649;48.090;9.754;2022-09-09T03:29:52;5.43;;;1.83;;
22965;SDS011;11649;48.090;9.754;2022-09-09T03:32:19;4.45;;;1.83;;
22965;SDS011;11649;48.090;9.754;2022-09-09T03:34:48;6.50;;;2.22;;
22965;SDS011;11649;48.090;9.754;2022-09-09T03:37:18;5.38;;;2.05;;
22965;SDS011;11649;48.090;9.754;2022-09-09T03:39:46;4.70;;;2.00;;
22965;SDS011;11649;48.090;9.754;2022-09-09T03:42:13;5.32;;;2.20;;
22965;SDS011;11649;48.090;9.754;2022-09-09T03:44:40;5.60;;;2.38;;
22965;SDS011;11649;48.090;9.754;2022-09-09T03:47:08;3.28;;;2.13;;
22965;SDS011;11649;48.090;9.754;2022-09-09T03:49:34;5.03;;;2.15;;
22965;SDS011;11649;48.090;9.754;2022-09-09T03:52:01;4.78;;;2.30;;
22965;SDS011;11649;48.090;9.754;2022-09-09T03:54:28;5.00;;;2.13;;
22965;SDS011;11649;48.090;9.754;2022-09-09T03:56:55;3.55;;;2.10;;
22965;SDS011;11649;48.090;9.754;2022-09-09T03:59:21;4.72;;;2.72;;
22965;SDS011;11649;48.090;9.754;2022-09-09T04:01:49;5.57;;;1.85;;
22965;SDS011;11649;48.090;9.754;2022-09-09T04:04:15;2.65;;;2.00;;
22965;SDS011;11649;48.090;9.754;2022-09-09T04:06:42;5.43;;;2.33;;
22965;SDS011;11649;48.090;9.754;2022-09-09T04:09:09;3.08;;;1.95;;
22965;SDS011;11649;48.090;9.754;2022-09-09T04:11:36;7.82;;;1.90;;
22965;SDS011;11649;48.090;9.754;2022-09-09T04:14:03;2.90;;;1.60;;
22965;SDS011;11649;48.090;9.754;2022-09-09T04:16:32;3.03;;;1.80;;
22965;SDS011;11649;48.090;9.754;2022-09-09T04:19:00;4.65;;;1.70;;
22965;SDS011;11649;48.090;9.754;2022-09-09T04:21:27;5.55;;;1.65;;
22965;SDS011;11649;48.090;9.754;2022-09-09T04:23:54;5.45;;;1.90;;
22965;SDS011;11649;48.090;9.754;2022-09-09T04:26:20;3.75;;;1.70;;
22965;SDS011;11649;48.090;9.754;2022-09-09T04:28:47;4.28;;;2.05;;
22965;SDS011;11649;48.090;9.754;2022-09-09T04:31:15;3.78;;;1.80;;
22965;SDS011;11649;48.090;9.754;2022-09-09T04:33:48;3.65;;;1.88;;
22965;SDS011;11649;48.090;9.754;2022-09-09T04:36:15;4.22;;;1.90;;
22965;SDS011;11649;48.090;9.754;2022-09-09T04:38:42;5.80;;;2.08;;
22965;SDS011;11649;48.090;9.754;2022-09-09T04:41:10;4.75;;;1.90;;
22965;SDS011;11649;48.090;9.754;2022-09-09T04:43:38;4.22;;;2.28;;
22965;SDS011;11649;48.090;9.754;2022-09-09T04:46:05;4.22;;;1.90;;
22965;SDS011;11649;48.090;9.754;2022-09-09T04:48:32;3.25;;;1.80;;
22965;SDS011;11649;48.090;9.754;2022-09-09T04:51:01;5.63;;;2.03;;
22965;SDS011;11649;48.090;9.754;2022-09-09T04:53:30;2.38;;;1.73;;
22965;SDS011;11649;48.090;9.754;2022-09-09T04:58:34;3.83;;;1.80;;
22965;SDS011;11649;48.090;9.754;2022-09-09T05:01:03;3.40;;;2.00;;
22965;SDS011;11649;48.090;9.754;2022-09-09T05:03:31;8.38;;;3.30;;
22965;SDS011;11649;48.090;9.754;2022-09-09T05:06:05;3.60;;;2.38;;
22965;SDS011;11649;48.090;9.754;2022-09-09T05:08:39;5.43;;;2.90;;
22965;SDS011;11649;48.090;9.754;2022-09-09T05:11:23;6.10;;;2.83;;
22965;SDS011;11649;48.090;9.754;2022-09-09T05:13:54;5.00;;;2.25;;
22965;SDS011;11649;48.090;9.754;2022-09-09T05:16:22;3.35;;;2.40;;
22965;SDS011;11649;48.090;9.754;2022-09-09T05:18:50;6.30;;;2.50;;
22965;SDS011;11649;48.090;9.754;2022-09-09T05:21:18;6.45;;;2.40;;
22965;SDS011;11649;48.090;9.754;2022-09-09T05:23:46;4.35;;;2.67;;
22965;SDS011;11649;48.090;9.754;2022-09-09T05:26:15;4.50;;;2.75;;
22965;SDS011;11649;48.090;9.754;2022-09-09T05:28:43;2.90;;;2.47;;
22965;SDS011;11649;48.090;9.754;2022-09-09T05:31:13;4.07;;;2.83;;
22965;SDS011;11649;48.090;9.754;2022-09-09T05:33:42;4.13;;;2.50;;
22965;SDS011;11649;48.090;9.754;2022-09-09T05:36:13;4.20;;;2.20;;
22965;SDS011;11649;48.090;9.754;2022-09-09T05:38:41;4.35;;;2.83;;
22965;SDS011;11649;48.090;9.754;2022-09-09T05:41:09;5.88;;;2.90;;
22965;SDS011;11649;48.090;9.754;2022-09-09T05:43:37;4.00;;;2.60;;
22965;SDS011;11649;48.090;9.754;2022-09-09T05:46:08;4.38;;;2.50;;
22965;SDS011;11649;48.090;9.754;2022-09-09T05:48:38;5.13;;;2.58;;
22965;SDS011;11649;48.090;9.754;2022-09-09T05:51:06;6.45;;;2.67;;
22965;SDS011;11649;48.090;9.754;2022-09-09T05:53:35;10.93;;;3.00;;
22965;SDS011;11649;48.090;9.754;2022-09-09T05:56:04;7.38;;;3.20;;
22965;SDS011;11649;48.090;9.754;2022-09-09T05:58:32;7.05;;;2.65;;
22965;SDS011;11649;48.090;9.754;2022-09-09T06:01:10;8.60;;;2.63;;
22965;SDS011;11649;48.090;9.754;2022-09-09T06:03:39;4.70;;;2.55;;
22965;SDS011;11649;48.090;9.754;2022-09-09T06:06:07;10.20;;;2.80;;
22965;SDS011;11649;48.090;9.754;2022-09-09T06:08:37;9.80;;;2.60;;
22965;SDS011;11649;48.090;9.754;2022-09-09T06:11:19;12.00;;;3.20;;
22965;SDS011;11649;48.090;9.754;2022-09-09T06:13:50;10.63;;;3.10;;
22965;SDS011;11649;48.090;9.754;2022-09-09T06:16:22;11.52;;;2.97;;
22965;SDS011;11649;48.090;9.754;2022-09-09T06:18:51;11.70;;;3.55;;
22965;SDS011;11649;48.090;9.754;2022-09-09T06:21:21;9.18;;;2.90;;
22965;SDS011;11649;48.090;9.754;2022-09-09T06:23:50;10.32;;;2.67;;
22965;SDS011;11649;48.090;9.754;2022-09-09T06:26:26;4.72;;;2.53;;
22965;SDS011;11649;48.090;9.754;2022-09-09T06:29:01;8.13;;;3.13;;
22965;SDS011;11649;48.090;9.754;2022-09-09T06:31:31;8.35;;;2.80;;
22965;SDS011;11649;48.090;9.754;2022-09-09T06:34:00;6.28;;;3.03;;
22965;SDS011;11649;48.090;9.754;2022-09-09T06:36:29;6.18;;;3.08;;
22965;SDS011;11649;48.090;9.754;2022-09-09T06:39:00;7.20;;;2.90;;
22965;SDS011;11649;48.090;9.754;2022-09-09T06:41:28;11.70;;;3.38;;
22965;SDS011;11649;48.090;9.754;2022-09-09T06:43:56;11.77;;;3.58;;
22965;SDS011;11649;48.090;9.754;2022-09-09T06:46:26;18.38;;;4.53;;
22965;SDS011;11649;48.090;9.754;2022-09-09T06:48:55;18.17;;;3.75;;
22965;SDS011;11649;48.090;9.754;2022-09-09T06:51:24;14.88;;;3.35;;
22965;SDS011;11649;48.090;9.754;2022-09-09T06:53:56;10.65;;;3.17;;
22965;SDS011;11649;48.090;9.754;2022-09-09T06:56:28;4.38;;;2.13;;
22965;SDS011;11649;48.090;9.754;2022-09-09T06:58:58;5.45;;;1.90;;
22965;SDS011;11649;48.090;9.754;2022-09-09T07:01:31;6.13;;;1.80;;
22965;SDS011;11649;48.090;9.754;2022-09-09T07:03:59;2.88;;;1.60;;
22965;SDS011;11649;48.090;9.754;2022-09-09T07:06:33;2.78;;;1.50;;
22965;SDS011;11649;48.090;9.754;2022-09-09T07:09:03;5.68;;;1.60;;
22965;SDS011;11649;48.090;9.754;2022-09-09T07:11:33;5.57;;;1.90;;
22965;SDS011;11649;48.090;9.754;2022-09-09T07:14:03;3.97;;;1.50;;
22965;SDS011;11649;48.090;9.754;2022-09-09T07:16:30;2.97;;;1.70;;
22965;SDS011;11649;48.090;9.754;2022-09-09T07:18:59;5.75;;;1.90;;
22965;SDS011;11649;48.090;9.754;2022-09-09T07:21:27;3.40;;;1.60;;
22965;SDS011;11649;48.090;9.754;2022-09-09T07:23:55;4.10;;;1.90;;
22965;SDS011;11649;48.090;9.754;2022-09-09T07:26:25;3.40;;;1.90;;
22965;SDS011;11649;48.090;9.754;2022-09-09T07:28:54;4.88;;;1.75;;
22965;SDS011;11649;48.090;9.754;2022-09-09T07:31:24;3.33;;;2.00;;
22965;SDS011;11649;48.090;9.754;2022-09-09T07:33:52;4.68;;;1.60;;
22965;SDS011;11649;48.090;9.754;2022-09-09T07:36:23;3.47;;;1.90;;
22965;SDS011;11649;48.090;9.754;2022-09-09T07:39:02;4.55;;;2.08;;
22965;SDS011;11649;48.090;9.754;2022-09-09T07:41:42;3.70;;;1.85;;
22965;SDS011;11649;48.090;9.754;2022-09-09T07:44:11;2.97;;;1.75;;
22965;SDS011;11649;48.090;9.754;2022-09-09T07:46:40;3.15;;;1.60;;
22965;SDS011;11649;48.090;9.754;2022-09-09T07:49:08;3.72;;;1.65;;
22965;SDS011;11649;48.090;9.754;2022-09-09T07:51:37;5.72;;;2.00;;
22965;SDS011;11649;48.090;9.754;2022-09-09T07:54:06;3.42;;;1.60;;
22965;SDS011;11649;48.090;9.754;2022-09-09T07:56:35;3.58;;;1.80;;
22965;SDS011;11649;48.090;9.754;2022-09-09T07:59:05;3.00;;;1.67;;
22965;SDS011;11649;48.090;9.754;2022-09-09T08:01:34;4.93;;;1.60;;
22965;SDS011;11649;48.090;9.754;2022-09-09T08:04:16;3.05;;;1.60;;
22965;SDS011;11649;48.090;9.754;2022-09-09T08:06:45;5.18;;;1.60;;
22965;SDS011;11649;48.090;9.754;2022-09-09T08:09:18;2.65;;;1.25;;
22965;SDS011;11649;48.090;9.754;2022-09-09T08:11:47;2.75;;;1.50;;
22965;SDS011;11649;48.090;9.754;2022-09-09T08:14:14;3.63;;;1.35;;
22965;SDS011;11649;48.090;9.754;2022-09-09T08:16:45;4.25;;;1.30;;
22965;SDS011;11649;48.090;9.754;2022-09-09T08:19:13;3.88;;;1.30;;
22965;SDS011;11649;48.090;9.754;2022-09-09T08:21:43;2.22;;;1.20;;
22965;SDS011;11649;48.090;9.754;2022-09-09T08:24:11;4.80;;;1.50;;
22965;SDS011;11649;48.090;9.754;2022-09-09T08:26:40;2.08;;;1.20;;
22965;SDS011;11649;48.090;9.754;2022-09-09T08:29:10;5.72;;;1.50;;
22965;SDS011;11649;48.090;9.754;2022-09-09T08:31:47;3.85;;;1.50;;
22965;SDS011;11649;48.090;9.754;2022-09-09T08:34:17;2.97;;;1.33;;
22965;SDS011;11649;48.090;9.754;2022-09-09T08:36:46;3.30;;;1.02;;
22965;SDS011;11649;48.090;9.754;2022-09-09T08:39:15;2.65;;;1.20;;
22965;SDS011;11649;48.090;9.754;2022-09-09T08:45:00;3.63;;;1.35;;
22965;SDS011;11649;48.090;9.754;2022-09-09T08:48:02;4.68;;;1.40;;
22965;SDS011;11649;48.090;9.754;2022-09-09T08:50:39;5.30;;;1.13;;
22965;SDS011;11649;48.090;9.754;2022-09-09T09:03:48;5.15;;;1.20;;
22965;SDS011;11649;48.090;9.754;2022-09-09T09:11:50;3.60;;;1.30;;
22965;SDS011;11649;48.090;9.754;2022-09-09T09:14:20;3.92;;;1.15;;
22965;SDS011;11649;48.090;9.754;2022-09-09T09:17:03;4.35;;;1.10;;
22965;SDS011;11649;48.090;9.754;2022-09-09T09:19:33;3.15;;;1.08;;
22965;SDS011;11649;48.090;9.754;2022-09-09T09:22:03;4.38;;;1.20;;
22965;SDS011;11649;48.090;9.754;2022-09-09T09:24:43;3.25;;;1.20;;
22965;SDS011;11649;48.090;9.754;2022-09-09T09:27:12;4.82;;;1.05;;
22965;SDS011;11649;48.090;9.754;2022-09-09T09:29:41;4.20;;;1.27;;
22965;SDS011;11649;48.090;9.754;2022-09-09T09:32:31;3.88;;;1.20;;
22965;SDS011;11649;48.090;9.754;2022-09-09T09:35:01;6.60;;;3.15;;
22965;SDS011;11649;48.090;9.754;2022-09-09T09:37:35;3.00;;;1.20;;
22965;SDS011;11649;48.090;9.754;2022-09-09T09:40:13;6.30;;;1.48;;
22965;SDS011;11649;48.090;9.754;2022-09-09T09:42:48;4.10;;;1.10;;
22965;SDS011;11649;48.090;9.754;2022-09-09T09:45:54;4.55;;;1.05;;
22965;SDS011;11649;48.090;9.754;2022-09-09T09:48:34;4.38;;;1.17;;
22965;SDS011;11649;48.090;9.754;2022-09-09T09:51:08;2.88;;;1.20;;
22965;SDS011;11649;48.090;9.754;2022-09-09T09:53:38;4.00;;;1.38;;
22965;SDS011;11649;48.090;9.754;2022-09-09T09:56:06;4.93;;;1.30;;
22965;SDS011;11649;48.090;9.754;2022-09-09T10:01:22;2.63;;;1.00;;
22965;SDS011;11649;48.090;9.754;2022-09-09T10:04:12;4.40;;;1.10;;
22965;SDS011;11649;48.090;9.754;2022-09-09T10:06:42;2.83;;;0.98;;
22965;SDS011;11649;48.090;9.754;2022-09-09T10:17:57;2.55;;;0.95;;
22965;SDS011;11649;48.090;9.754;2022-09-09T10:20:52;4.78;;;1.08;;
22965;SDS011;11649;48.090;9.754;2022-09-09T10:23:29;1.98;;;0.82;;
22965;SDS011;11649;48.090;9.754;2022-09-09T10:26:28;4.95;;;1.02;;
22965;SDS011;11649;48.090;9.754;2022-09-09T10:37:25;2.50;;;0.82;;
22965;SDS011;11649;48.090;9.754;2022-09-09T10:40:06;1.73;;;0.80;;
22965;SDS011;11649;48.090;9.754;2022-09-09T10:49:08;3.88;;;1.05;;
22965;SDS011;11649;48.090;9.754;2022-09-09T10:51:51;2.85;;;1.05;;
22965;SDS011;11649;48.090;9.754;2022-09-09T10:54:49;3.10;;;1.08;;
22965;SDS011;11649;48.090;9.754;2022-09-09T10:57:42;4.10;;;1.00;;
22965;SDS011;11649;48.090;9.754;2022-09-09T11:00:19;1.65;;;0.90;;
22965;SDS011;11649;48.090;9.754;2022-09-09T11:08:03;3.13;;;0.70;;
22965;SDS011;11649;48.090;9.754;2022-09-09T11:10:43;2.33;;;1.00;;
22965;SDS011;11649;48.090;9.754;2022-09-09T11:13:23;1.63;;;0.70;;
22965;SDS011;11649;48.090;9.754;2022-09-09T11:16:22;2.03;;;1.00;;
22965;SDS011;11649;48.090;9.754;2022-09-09T11:21:48;4.00;;;0.90;;
22965;SDS011;11649;48.090;9.754;2022-09-09T11:24:18;4.95;;;1.10;;
22965;SDS011;11649;48.090;9.754;2022-09-09T11:27:05;3.50;;;1.00;;
22965;SDS011;11649;48.090;9.754;2022-09-09T11:33:18;1.65;;;0.60;;
22965;SDS011;11649;48.090;9.754;2022-09-09T11:38:46;1.98;;;0.90;;
22965;SDS011;11649;48.090;9.754;2022-09-09T11:41:17;2.15;;;0.80;;
22965;SDS011;11649;48.090;9.754;2022-09-09T11:43:50;2.83;;;0.90;;
22965;SDS011;11649;48.090;9.754;2022-09-09T11:46:31;2.65;;;0.90;;
22965;SDS011;11649;48.090;9.754;2022-09-09T11:49:03;1.10;;;0.80;;
22965;SDS011;11649;48.090;9.754;2022-09-09T11:51:32;2.95;;;1.00;;
22965;SDS011;11649;48.090;9.754;2022-09-09T11:56:55;3.58;;;0.75;;
22965;SDS011;11649;48.090;9.754;2022-09-09T11:59:32;1.50;;;0.82;;
22965;SDS011;11649;48.090;9.754;2022-09-09T12:02:17;2.35;;;1.00;;
22965;SDS011;11649;48.090;9.754;2022-09-09T12:07:28;3.53;;;0.90;;
22965;SDS011;11649;48.090;9.754;2022-09-09T12:10:20;2.60;;;0.82;;
22965;SDS011;11649;48.090;9.754;2022-09-09T12:13:18;2.72;;;0.90;;
22965;SDS011;11649;48.090;9.754;2022-09-09T12:15:48;2.97;;;0.88;;
22965;SDS011;11649;48.090;9.754;2022-09-09T12:18:22;3.42;;;0.85;;
22965;SDS011;11649;48.090;9.754;2022-09-09T12:24:06;2.83;;;0.80;;
22965;SDS011;11649;48.090;9.754;2022-09-09T12:32:12;4.97;;;0.90;;
22965;SDS011;11649;48.090;9.754;2022-09-09T12:34:47;4.13;;;0.70;;
22965;SDS011;11649;48.090;9.754;2022-09-09T12:37:33;3.33;;;0.80;;
22965;SDS011;11649;48.090;9.754;2022-09-09T12:40:21;1.55;;;0.70;;
22965;SDS011;11649;48.090;9.754;2022-09-09T12:42:57;3.28;;;0.90;;
22965;SDS011;11649;48.090;9.754;2022-09-09T12:45:31;1.98;;;0.80;;
22965;SDS011;11649;48.090;9.754;2022-09-09T12:50:37;3.28;;;1.08;;
22965;SDS011;11649;48.090;9.754;2022-09-09T12:53:11;1.83;;;0.73;;
22965;SDS011;11649;48.090;9.754;2022-09-09T12:55:52;2.25;;;0.75;;
22965;SDS011;11649;48.090;9.754;2022-09-09T12:58:35;1.85;;;0.68;;
22965;SDS011;11649;48.090;9.754;2022-09-09T13:01:04;2.88;;;0.70;;
22965;SDS011;11649;48.090;9.754;2022-09-09T13:03:32;2.95;;;0.90;;
22965;SDS011;11649;48.090;9.754;2022-09-09T13:06:13;3.38;;;0.70;;
22965;SDS011;11649;48.090;9.754;2022-09-09T13:08:54;3.22;;;0.75;;
22965;SDS011;11649;48.090;9.754;2022-09-09T13:11:24;1.48;;;0.60;;
22965;SDS011;11649;48.090;9.754;2022-09-09T13:13:57;1.35;;;0.75;;
22965;SDS011;11649;48.090;9.754;2022-09-09T13:19:14;1.42;;;0.70;;
22965;SDS011;11649;48.090;9.754;2022-09-09T13:21:42;6.15;;;0.80;;
22965;SDS011;11649;48.090;9.754;2022-09-09T13:27:02;2.08;;;0.80;;
22965;SDS011;11649;48.090;9.754;2022-09-09T13:29:31;2.83;;;0.90;;
22965;SDS011;11649;48.090;9.754;2022-09-09T13:32:17;1.63;;;0.60;;
22965;SDS011;11649;48.090;9.754;2022-09-09T13:37:42;1.70;;;0.68;;
22965;SDS011;11649;48.090;9.754;2022-09-09T13:40:17;2.95;;;0.55;;
22965;SDS011;11649;48.090;9.754;2022-09-09T13:42:46;6.10;;;0.90;;
22965;SDS011;11649;48.090;9.754;2022-09-09T13:45:18;2.47;;;0.90;;
22965;SDS011;11649;48.090;9.754;2022-09-09T13:47:46;2.03;;;0.80;;
22965;SDS011;11649;48.090;9.754;2022-09-09T13:50:19;3.22;;;0.70;;
22965;SDS011;11649;48.090;9.754;2022-09-09T13:52:47;2.00;;;0.80;;
22965;SDS011;11649;48.090;9.754;2022-09-09T13:55:28;1.95;;;0.70;;
22965;SDS011;11649;48.090;9.754;2022-09-09T13:57:59;2.85;;;0.77;;
22965;SDS011;11649;48.090;9.754;2022-09-09T14:00:31;1.23;;;0.82;;
22965;SDS011;11649;48.090;9.754;2022-09-09T14:03:00;1.73;;;0.80;;
22965;SDS011;11649;48.090;9.754;2022-09-09T14:05:31;3.65;;;0.70;;
22965;SDS011;11649;48.090;9.754;2022-09-09T14:08:00;2.65;;;0.80;;
22965;SDS011;11649;48.090;9.754;2022-09-09T14:10:29;2.08;;;0.57;;
22965;SDS011;11649;48.090;9.754;2022-09-09T14:12:56;2.08;;;0.68;;
22965;SDS011;11649;48.090;9.754;2022-09-09T14:15:22;1.48;;;0.60;;
22965;SDS011;11649;48.090;9.754;2022-09-09T14:17:49;5.03;;;0.80;;
22965;SDS011;11649;48.090;9.754;2022-09-09T14:20:18;3.03;;;0.73;;
22965;SDS011;11649;48.090;9.754;2022-09-09T14:22:45;2.45;;;0.60;;
22965;SDS011;11649;48.090;9.754;2022-09-09T14:25:12;2.30;;;0.60;;
22965;SDS011;11649;48.090;9.754;2022-09-09T14:27:39;2.65;;;0.63;;
22965;SDS011;11649;48.090;9.754;2022-09-09T14:30:07;1.88;;;0.70;;
22965;SDS011;11649;48.090;9.754;2022-09-09T14:32:34;2.08;;;0.80;;
22965;SDS011;11649;48.090;9.754;2022-09-09T14:35:01;3.03;;;0.90;;
22965;SDS011;11649;48.090;9.754;2022-09-09T14:37:28;2.00;;;0.77;;
22965;SDS011;11649;48.090;9.754;2022-09-09T14:39:57;2.05;;;0.73;;
22965;SDS011;11649;48.090;9.754;2022-09-09T14:42:24;3.97;;;1.17;;
22965;SDS011;11649;48.090;9.754;2022-09-09T14:44:52;6.63;;;0.90;;
22965;SDS011;11649;48.090;9.754;2022-09-09T14:47:19;2.80;;;0.90;;
22965;SDS011;11649;48.090;9.754;2022-09-09T14:49:46;4.55;;;1.13;;
22965;SDS011;11649;48.090;9.754;2022-09-09T14:52:15;4.40;;;0.93;;
22965;SDS011;11649;48.090;9.754;2022-09-09T14:54:42;2.58;;;0.70;;
22965;SDS011;11649;48.090;9.754;2022-09-09T14:57:09;2.03;;;0.75;;
22965;SDS011;11649;48.090;9.754;2022-09-09T14:59:36;4.05;;;0.90;;
22965;SDS011;11649;48.090;9.754;2022-09-09T15:02:02;4.15;;;0.90;;
22965;SDS011;11649;48.090;9.754;2022-09-09T15:04:30;1.88;;;0.75;;
22965;SDS011;11649;48.090;9.754;2022-09-09T15:06:57;5.40;;;0.80;;
22965;SDS011;11649;48.090;9.754;2022-09-09T15:09:24;3.67;;;0.65;;
22965;SDS011;11649;48.090;9.754;2022-09-09T15:11:51;4.30;;;0.68;;
22965;SDS011;11649;48.090;9.754;2022-09-09T15:14:18;2.38;;;0.73;;
22965;SDS011;11649;48.090;9.754;2022-09-09T15:16:50;2.00;;;0.80;;
22965;SDS011;11649;48.090;9.754;2022-09-09T15:19:17;2.58;;;0.80;;
22965;SDS011;11649;48.090;9.754;2022-09-09T15:21:44;3.47;;;0.88;;
22965;SDS011;11649;48.090;9.754;2022-09-09T15:24:11;2.25;;;0.60;;
22965;SDS011;11649;48.090;9.754;2022-09-09T15:26:39;3.58;;;0.73;;
22965;SDS011;11649;48.090;9.754;2022-09-09T15:29:07;1.80;;;0.63;;
22965;SDS011;11649;48.090;9.754;2022-09-09T15:31:34;2.50;;;0.80;;
22965;SDS011;11649;48.090;9.754;2022-09-09T15:34:02;1.58;;;0.77;;
22965;SDS011;11649;48.090;9.754;2022-09-09T15:36:32;2.92;;;0.77;;
22965;SDS011;11649;48.090;9.754;2022-09-09T15:39:01;1.52;;;0.50;;
22965;SDS011;11649;48.090;9.754;2022-09-09T15:41:29;2.40;;;0.70;;
22965;SDS011;11649;48.090;9.754;2022-09-09T15:43:59;3.25;;;0.63;;
22965;SDS011;11649;48.090;9.754;2022-09-09T15:49:08;3.05;;;0.65;;
22965;SDS011;11649;48.090;9.754;2022-09-09T15:51:54;2.10;;;0.70;;
22965;SDS011;11649;48.090;9.754;2022-09-09T15:54:24;2.35;;;0.65;;
22965;SDS011;11649;48.090;9.754;2022-09-09T15:56:52;1.63;;;0.60;;
22965;SDS011;11649;48.090;9.754;2022-09-09T15:59:24;2.10;;;0.70;;
22965;SDS011;11649;48.090;9.754;2022-09-09T16:01:53;3.67;;;0.63;;
22965;SDS011;11649;48.090;9.754;2022-09-09T16:04:21;3.40;;;0.70;;
22965;SDS011;11649;48.090;9.754;2022-09-09T16:06:53;2.38;;;0.80;;
22965;SDS011;11649;48.090;9.754;2022-09-09T16:09:23;4.40;;;0.77;;
22965;SDS011;11649;48.090;9.754;2022-09-09T16:11:50;2.35;;;0.63;;
22965;SDS011;11649;48.090;9.754;2022-09-09T16:14:19;4.07;;;0.80;;
22965;SDS011;11649;48.090;9.754;2022-09-09T16:16:45;3.65;;;0.90;;
22965;SDS011;11649;48.090;9.754;2022-09-09T16:19:12;2.38;;;0.75;;
22965;SDS011;11649;48.090;9.754;2022-09-09T16:21:40;3.17;;;1.00;;
22965;SDS011;11649;48.090;9.754;2022-09-09T16:24:10;2.20;;;0.68;;
22965;SDS011;11649;48.090;9.754;2022-09-09T16:26:39;2.00;;;0.90;;
22965;SDS011;11649;48.090;9.754;2022-09-09T16:29:09;4.97;;;0.80;;
22965;SDS011;11649;48.090;9.754;2022-09-09T16:31:35;3.17;;;0.70;;
22965;SDS011;11649;48.090;9.754;2022-09-09T16:34:03;2.05;;;0.40;;
22965;SDS011;11649;48.090;9.754;2022-09-09T16:36:30;1.13;;;0.50;;
22965;SDS011;11649;48.090;9.754;2022-09-09T16:39:03;1.25;;;0.50;;
22965;SDS011;11649;48.090;9.754;2022-09-09T16:41:32;1.55;;;0.60;;
22965;SDS011;11649;48.090;9.754;2022-09-09T16:44:00;1.90;;;0.55;;
22965;SDS011;11649;48.090;9.754;2022-09-09T16:46:29;2.45;;;0.45;;
22965;SDS011;11649;48.090;9.754;2022-09-09T16:48:58;1.55;;;0.57;;
22965;SDS011;11649;48.090;9.754;2022-09-09T16:51:27;1.77;;;0.50;;
22965;SDS011;11649;48.090;9.754;2022-09-09T16:54:00;1.15;;;0.60;;
22965;SDS011;11649;48.090;9.754;2022-09-09T16:56:29;3.63;;;0.57;;
22965;SDS011;11649;48.090;9.754;2022-09-09T16:58:57;1.30;;;0.47;;
22965;SDS011;11649;48.090;9.754;2022-09-09T17:01:29;1.55;;;0.50;;
22965;SDS011;11649;48.090;9.754;2022-09-09T17:03:59;3.05;;;0.50;;
22965;SDS011;11649;48.090;9.754;2022-09-09T17:06:28;1.45;;;0.75;;
22965;SDS011;11649;48.090;9.754;2022-09-09T17:08:56;3.78;;;0.70;;
22965;SDS011;11649;48.090;9.754;2022-09-09T17:11:25;2.20;;;0.68;;
22965;SDS011;11649;48.090;9.754;2022-09-09T17:13:52;2.20;;;0.60;;
22965;SDS011;11649;48.090;9.754;2022-09-09T17:16:21;1.85;;;0.68;;
22965;SDS011;11649;48.090;9.754;2022-09-09T17:18:50;2.92;;;0.80;;
22965;SDS011;11649;48.090;9.754;2022-09-09T17:21:18;1.80;;;0.60;;
22965;SDS011;11649;48.090;9.754;2022-09-09T17:23:46;1.73;;;0.57;;
22965;SDS011;11649;48.090;9.754;2022-09-09T17:26:14;3.17;;;0.70;;